createdAt,value
2023-04-05T00:01:25.639Z,53.70
2023-04-05T00:03:55.061Z,53.80
2023-04-05T00:06:26.637Z,54.60
2023-04-05T00:08:56.121Z,53.90
2023-04-05T00:11:24.349Z,54.00
2023-04-05T00:13:54.282Z,54.10
2023-04-05T00:16:23.325Z,54.10
2023-04-05T00:18:52.120Z,54.10
2023-04-05T00:21:22.578Z,54.20
2023-04-05T00:23:52.034Z,54.30
2023-04-05T00:26:21.345Z,54.30
2023-04-05T00:28:49.857Z,54.40
2023-04-05T00:31:20.636Z,54.40
2023-04-05T00:33:48.899Z,54.50
2023-04-05T00:36:19.681Z,54.50
2023-04-05T00:38:49.778Z,54.60
2023-04-05T00:41:18.515Z,54.60
2023-04-05T00:43:46.756Z,54.70
2023-04-05T00:46:15.446Z,54.70
2023-04-05T00:48:46.054Z,54.70
2023-04-05T00:51:14.146Z,54.90
2023-04-05T00:53:43.596Z,54.90
2023-04-05T00:56:13.548Z,55.00
2023-04-05T00:58:43.059Z,55.00
2023-04-05T01:01:16.591Z,55.00
2023-04-05T01:03:50.054Z,55.00
2023-04-05T01:06:27.993Z,55.00
2023-04-05T01:09:04.677Z,55.10
2023-04-05T01:11:35.168Z,55.20
2023-04-05T01:14:04.374Z,55.20
2023-04-05T01:16:32.471Z,55.30
2023-04-05T01:19:02.502Z,55.40
2023-04-05T01:21:58.343Z,55.50
2023-04-05T01:24:41.286Z,55.80
2023-04-05T01:27:13.121Z,55.80
2023-04-05T01:30:04.952Z,55.70
2023-04-05T01:32:51.009Z,56.00
2023-04-05T01:35:24.180Z,55.80
2023-04-05T01:37:58.541Z,55.60
2023-04-05T01:40:27.616Z,55.60
2023-04-05T01:42:55.857Z,55.50
2023-04-05T01:45:25.826Z,55.50
2023-04-05T01:47:53.961Z,55.60
2023-04-05T01:50:22.700Z,55.60
2023-04-05T01:52:50.797Z,55.70
2023-04-05T01:55:19.340Z,55.80
2023-04-05T01:57:47.442Z,55.90
2023-04-05T02:00:16.160Z,55.90
2023-04-05T02:02:46.216Z,55.90
2023-04-05T02:05:14.589Z,55.90
2023-04-05T02:07:43.156Z,55.90
2023-04-05T02:10:11.434Z,55.90
2023-04-05T02:12:40.099Z,55.90
2023-04-05T02:15:09.707Z,55.90
2023-04-05T02:17:40.239Z,55.80
2023-04-05T02:20:12.475Z,55.80
2023-04-05T02:22:41.459Z,55.90
2023-04-05T02:25:10.177Z,55.90
2023-04-05T02:27:38.763Z,56.00
2023-04-05T02:30:08.198Z,55.90
2023-04-05T02:32:36.751Z,56.00
2023-04-05T02:35:05.220Z,55.90
2023-04-05T02:37:35.131Z,55.90
2023-04-05T02:40:05.370Z,55.90
2023-04-05T02:42:33.941Z,55.90
2023-04-05T02:45:02.251Z,55.90
2023-04-05T02:47:30.881Z,56.10
2023-04-05T02:49:58.992Z,56.10
2023-04-05T02:52:27.490Z,56.20
2023-04-05T02:54:57.396Z,56.40
2023-04-05T02:57:26.405Z,56.50
2023-04-05T02:59:55.085Z,56.50
2023-04-05T03:02:23.194Z,56.40
2023-04-05T03:04:53.890Z,56.50
2023-04-05T03:07:22.601Z,56.60
2023-04-05T03:09:51.404Z,56.60
2023-04-05T03:12:20.939Z,56.70
2023-04-05T03:14:49.048Z,56.70
2023-04-05T03:17:17.658Z,56.70
2023-04-05T03:19:46.651Z,57.30
2023-04-05T03:22:15.177Z,56.70
2023-04-05T03:24:43.639Z,56.80
2023-04-05T03:27:11.675Z,56.90
2023-04-05T03:29:41.599Z,56.90
2023-04-05T03:32:11.950Z,57.00
2023-04-05T03:34:40.508Z,56.40
2023-04-05T03:37:09.049Z,57.10
2023-04-05T03:39:38.067Z,57.10
2023-04-05T03:42:06.701Z,57.20
2023-04-05T03:44:34.784Z,57.10
2023-04-05T03:47:04.786Z,57.20
2023-04-05T03:49:32.850Z,57.30
2023-04-05T03:52:01.365Z,57.30
2023-04-05T03:54:29.875Z,57.30
2023-04-05T03:56:58.187Z,57.40
2023-04-05T03:59:27.124Z,57.50
2023-04-05T04:01:55.982Z,57.50
2023-04-05T04:04:26.155Z,57.50
2023-04-05T04:06:55.460Z,57.60
2023-04-05T04:09:24.540Z,57.70
2023-04-05T04:11:53.126Z,57.70
2023-04-05T04:14:21.658Z,57.60
2023-04-05T04:16:49.863Z,57.60
2023-04-05T04:19:19.062Z,57.70
2023-04-05T04:21:52.118Z,57.80
2023-04-05T04:24:20.632Z,57.80
2023-04-05T04:26:49.846Z,57.80
2023-04-05T04:29:18.371Z,57.90
2023-04-05T04:31:48.545Z,57.90
2023-04-05T04:34:19.153Z,58.00
2023-04-05T04:37:00.621Z,58.10
2023-04-05T04:39:31.472Z,58.20
2023-04-05T04:42:01.401Z,58.10
2023-04-05T04:44:31.832Z,58.10
2023-04-05T04:46:59.935Z,58.10
2023-04-05T04:49:28.971Z,58.20
2023-04-05T04:52:00.087Z,58.30
2023-04-05T04:54:29.390Z,58.40
2023-04-05T04:56:58.344Z,58.30
2023-04-05T04:59:26.537Z,58.40
2023-04-05T05:01:55.214Z,58.40
2023-04-05T05:04:23.607Z,58.40
2023-04-05T05:06:54.653Z,58.40
2023-04-05T05:09:24.597Z,58.50
2023-04-05T05:11:52.691Z,58.60
2023-04-05T05:14:21.666Z,58.70
2023-04-05T05:16:50.242Z,58.70
2023-04-05T05:19:18.413Z,59.30
2023-04-05T05:21:47.581Z,58.70
2023-04-05T05:24:16.113Z,58.70
2023-04-05T05:26:46.003Z,58.70
2023-04-05T05:29:14.038Z,58.90
2023-04-05T05:31:42.583Z,58.90
2023-04-05T05:34:10.726Z,58.90
2023-04-05T05:36:39.256Z,59.00
2023-04-05T05:39:08.489Z,59.00
2023-04-05T05:41:36.577Z,59.00
2023-04-05T05:44:06.627Z,59.10
2023-04-05T05:46:35.333Z,59.20
2023-04-05T05:49:03.558Z,59.20
2023-04-05T05:51:32.391Z,59.40
2023-04-05T05:54:01.113Z,59.50
2023-04-05T05:56:29.226Z,59.50
2023-04-05T05:58:59.927Z,59.60
2023-04-05T06:01:29.484Z,59.60
2023-04-05T06:03:57.604Z,59.70
2023-04-05T06:06:26.962Z,59.80
2023-04-05T06:08:55.449Z,59.80
2023-04-05T06:11:25.770Z,59.70
2023-04-05T06:13:55.081Z,59.80
2023-04-05T06:16:23.808Z,59.80
2023-04-05T06:18:55.546Z,59.80
2023-04-05T06:21:23.707Z,59.90
2023-04-05T06:23:51.758Z,59.90
2023-04-05T06:26:21.068Z,59.90
2023-04-05T06:28:49.148Z,59.90
2023-04-05T06:31:18.821Z,59.90
2023-04-05T06:33:46.877Z,60.00
2023-04-05T06:36:16.908Z,59.80
2023-04-05T06:38:45.448Z,60.00
2023-04-05T06:41:13.599Z,60.10
2023-04-05T06:43:41.854Z,60.10
2023-04-05T06:46:12.131Z,60.00
2023-04-05T06:48:40.804Z,60.00
2023-04-05T06:51:08.925Z,60.00
2023-04-05T06:53:38.847Z,60.00
2023-04-05T06:56:07.506Z,60.10
2023-04-05T06:58:36.134Z,60.10
2023-04-05T07:01:04.807Z,60.10
2023-04-05T07:03:34.016Z,60.10
2023-04-05T07:06:03.424Z,60.20
2023-04-05T07:08:34.114Z,60.10
2023-04-05T07:11:04.181Z,60.20
2023-04-05T07:13:33.673Z,60.10
2023-04-05T07:16:02.728Z,60.20
2023-04-05T07:18:31.506Z,60.20
2023-04-05T07:21:04.844Z,60.30
2023-04-05T07:23:33.407Z,60.30
2023-04-05T07:26:06.161Z,60.30
2023-04-05T07:28:36.204Z,60.60
2023-04-05T07:31:04.608Z,60.60
2023-04-05T07:33:32.883Z,60.70
2023-04-05T07:36:01.690Z,60.80
2023-04-05T07:38:31.354Z,60.80
2023-04-05T07:40:59.456Z,60.80
2023-04-05T07:43:29.364Z,60.90
2023-04-05T07:46:03.639Z,60.90
2023-04-05T07:48:31.994Z,60.90
2023-04-05T07:51:05.661Z,60.90
2023-04-05T07:53:33.826Z,61.00
2023-04-05T07:56:05.294Z,60.90
2023-04-05T07:58:35.826Z,61.00
2023-04-05T08:01:05.683Z,60.90
2023-04-05T08:03:35.164Z,61.00
2023-04-05T08:06:11.937Z,60.90
2023-04-05T08:08:40.461Z,60.50
2023-04-05T08:11:09.065Z,60.10
2023-04-05T08:13:41.017Z,60.00
2023-04-05T08:16:09.617Z,60.00
2023-04-05T08:18:38.470Z,60.00
2023-04-05T08:21:06.835Z,59.90
2023-04-05T08:23:35.486Z,59.70
2023-04-05T08:26:03.684Z,59.60
2023-04-05T08:28:32.356Z,59.30
2023-04-05T08:31:01.963Z,59.00
2023-04-05T08:33:31.521Z,58.90
2023-04-05T08:36:04.612Z,58.80
2023-04-05T08:38:33.169Z,58.70
2023-04-05T08:41:09.135Z,58.60
2023-04-05T08:43:57.706Z,58.50
2023-04-05T08:46:27.446Z,58.50
2023-04-05T08:48:56.816Z,58.40
2023-04-05T08:51:26.155Z,58.50
2023-04-05T08:53:55.624Z,58.30
2023-04-05T08:56:27.315Z,58.00
2023-04-05T08:59:03.395Z,57.70
2023-04-05T09:01:34.899Z,57.60
2023-04-05T09:04:08.609Z,57.60
2023-04-05T09:06:38.193Z,57.50
2023-04-05T09:09:09.110Z,57.40
2023-04-05T09:11:37.782Z,57.30
2023-04-05T09:14:06.162Z,57.30
2023-04-05T09:16:39.473Z,57.00
2023-04-05T09:19:07.796Z,56.80
2023-04-05T09:22:01.112Z,56.80
2023-04-05T09:24:34.858Z,56.60
2023-04-05T09:27:06.878Z,56.80
2023-04-05T09:29:35.010Z,56.70
2023-04-05T09:32:05.866Z,56.50
2023-04-05T09:34:34.091Z,56.30
2023-04-05T09:37:02.834Z,56.20
2023-04-05T09:39:32.930Z,56.10
2023-04-05T09:42:07.867Z,56.00
2023-04-05T09:44:53.614Z,55.80
2023-04-05T09:47:25.053Z,55.40
2023-04-05T09:49:53.736Z,55.80
2023-04-05T09:52:23.345Z,55.50
2023-04-05T09:54:53.449Z,55.40
2023-04-05T09:57:21.503Z,55.00
2023-04-05T09:59:49.717Z,55.00
2023-04-05T10:02:18.029Z,54.80
2023-04-05T10:04:48.918Z,54.80
2023-04-05T10:07:18.683Z,54.90
2023-04-05T10:09:50.145Z,54.50
2023-04-05T10:12:26.577Z,54.10
2023-04-05T10:14:54.821Z,53.90
2023-04-05T10:17:26.439Z,54.10
2023-04-05T10:20:06.677Z,53.80
2023-04-05T10:22:41.074Z,53.80
2023-04-05T10:25:21.914Z,53.70
2023-04-05T10:27:55.940Z,53.40
2023-04-05T10:30:26.789Z,53.40
2023-04-05T10:33:08.472Z,53.40
2023-04-05T10:35:51.399Z,53.30
2023-04-05T10:38:24.582Z,53.50
2023-04-05T10:40:55.815Z,53.80
2023-04-05T10:43:27.290Z,54.00
2023-04-05T10:45:56.973Z,54.20
2023-04-05T10:48:38.286Z,54.10
2023-04-05T10:51:08.508Z,53.40
2023-04-05T10:53:39.055Z,53.20
2023-04-05T10:56:07.716Z,52.90
2023-04-05T10:58:37.934Z,52.60
2023-04-05T11:01:07.307Z,52.50
2023-04-05T11:03:49.315Z,52.40
2023-04-05T11:06:24.664Z,52.20
2023-04-05T11:08:56.856Z,52.30
2023-04-05T11:11:27.717Z,52.20
2023-04-05T11:13:58.371Z,52.30
2023-04-05T11:16:40.872Z,52.30
2023-04-05T11:19:09.519Z,51.90
2023-04-05T11:21:39.063Z,52.30
2023-04-05T11:24:10.109Z,51.90
2023-04-05T11:26:58.747Z,52.10
2023-04-05T11:29:49.584Z,51.70
2023-04-05T11:32:17.881Z,51.50
2023-04-05T11:34:58.653Z,51.70
2023-04-05T11:38:06.616Z,51.50
2023-04-05T11:40:36.673Z,50.60
2023-04-05T11:43:08.057Z,51.30
2023-04-05T11:45:37.663Z,50.90
2023-04-05T11:48:10.907Z,50.50
2023-04-05T11:50:42.468Z,49.90
2023-04-05T11:53:16.704Z,50.40
2023-04-05T11:55:46.218Z,50.10
2023-04-05T11:58:16.478Z,50.10
2023-04-05T12:00:46.541Z,50.00
2023-04-05T12:03:16.100Z,49.70
2023-04-05T12:05:51.612Z,49.50
2023-04-05T12:08:22.643Z,49.00
2023-04-05T12:10:57.479Z,49.10
2023-04-05T12:13:30.632Z,48.80
2023-04-05T12:16:04.030Z,48.90
2023-04-05T12:18:33.707Z,48.50
2023-04-05T12:21:06.454Z,48.70
2023-04-05T12:23:38.305Z,48.70
2023-04-05T12:26:09.270Z,48.50
2023-04-05T12:28:53.736Z,48.30
2023-04-05T12:31:40.237Z,47.40
2023-04-05T12:34:09.643Z,47.10
2023-04-05T12:36:39.411Z,47.40
2023-04-05T12:39:10.303Z,47.30
2023-04-05T12:41:38.949Z,47.30
2023-04-05T12:44:12.921Z,47.30
2023-04-05T12:46:41.595Z,47.10
2023-04-05T12:49:13.177Z,47.00
2023-04-05T12:51:44.088Z,46.60
2023-04-05T12:54:15.792Z,46.50
2023-04-05T12:56:43.972Z,46.40
2023-04-05T12:59:13.047Z,46.00
2023-04-05T13:01:41.263Z,45.30
2023-04-05T13:04:16.236Z,45.60
2023-04-05T13:06:47.919Z,45.60
2023-04-05T13:09:18.028Z,45.50
2023-04-05T13:11:46.669Z,45.10
2023-04-05T13:14:15.082Z,45.10
2023-04-05T13:16:43.634Z,45.00
2023-04-05T13:19:11.729Z,45.00
2023-04-05T13:21:40.324Z,45.00
2023-04-05T13:24:11.562Z,45.10
2023-04-05T13:26:42.778Z,45.00
2023-04-05T13:29:10.919Z,44.40
2023-04-05T13:31:41.363Z,44.20
2023-04-05T13:34:09.750Z,43.50
2023-04-05T13:36:38.353Z,43.40
2023-04-05T13:39:06.880Z,43.10
2023-04-05T13:41:34.957Z,43.00
2023-04-05T13:44:06.623Z,43.00
2023-04-05T13:46:35.571Z,43.30
2023-04-05T13:49:04.259Z,43.60
2023-04-05T13:51:34.372Z,43.70
2023-04-05T13:54:03.121Z,42.10
2023-04-05T13:56:31.687Z,42.90
2023-04-05T13:58:59.896Z,43.30
2023-04-05T14:01:29.957Z,44.00
2023-04-05T14:03:58.192Z,43.70
2023-04-05T14:06:27.734Z,43.60
2023-04-05T14:08:55.985Z,43.40
2023-04-05T14:11:24.821Z,43.30
2023-04-05T14:13:52.862Z,43.10
2023-04-05T14:16:20.968Z,42.90
2023-04-05T14:18:51.148Z,42.70
2023-04-05T14:21:19.726Z,42.50
2023-04-05T14:23:50.902Z,42.40
2023-04-05T14:26:18.930Z,41.80
2023-04-05T14:28:47.479Z,41.30
2023-04-05T14:31:15.594Z,41.00
2023-04-05T14:33:44.149Z,40.90
2023-04-05T14:36:14.070Z,40.40
2023-04-05T14:38:42.607Z,40.10
2023-04-05T14:41:10.703Z,40.40
2023-04-05T14:43:39.783Z,40.30
2023-04-05T14:46:08.021Z,39.80
2023-04-05T14:48:37.901Z,39.90
2023-04-05T14:51:06.549Z,39.30
2023-04-05T14:53:36.471Z,39.20
2023-04-05T14:56:04.917Z,39.20
2023-04-05T14:58:34.564Z,39.30
2023-04-05T15:01:02.710Z,39.00
2023-04-05T15:03:31.611Z,38.80
2023-04-05T15:06:00.307Z,38.40
2023-04-05T15:08:28.424Z,38.60
2023-04-05T15:10:58.629Z,38.30
2023-04-05T15:13:27.537Z,38.50
2023-04-05T15:15:55.665Z,38.20
2023-04-05T15:18:24.176Z,38.10
2023-04-05T15:20:53.840Z,37.90
2023-04-05T15:23:22.556Z,38.00
2023-04-05T15:25:50.657Z,37.90
2023-04-05T15:28:20.595Z,37.30
2023-04-05T15:30:49.121Z,37.10
2023-04-05T15:33:18.546Z,37.50
2023-04-05T15:35:46.649Z,37.10
2023-04-05T15:38:15.277Z,37.40
2023-04-05T15:40:44.008Z,37.10
2023-04-05T15:43:12.637Z,36.90
2023-04-05T15:45:43.273Z,36.70
2023-04-05T15:48:14.007Z,36.30
2023-04-05T15:50:42.563Z,36.50
2023-04-05T15:53:11.627Z,36.40
2023-04-05T15:55:40.244Z,35.70
2023-04-05T15:58:08.268Z,35.80
2023-04-05T16:00:36.869Z,35.90
2023-04-05T16:03:06.474Z,35.50
2023-04-05T16:05:35.098Z,35.50
2023-04-05T16:08:03.172Z,35.10
2023-04-05T16:10:31.726Z,35.30
2023-04-05T16:12:59.854Z,35.30
2023-04-05T16:15:28.798Z,35.10
2023-04-05T16:17:58.886Z,35.00
2023-04-05T16:20:28.545Z,35.00
2023-04-05T16:22:57.433Z,35.10
2023-04-05T16:25:25.532Z,35.10
2023-04-05T16:27:57.317Z,35.00
2023-04-05T16:30:25.389Z,34.60
2023-04-05T16:32:54.484Z,34.80
2023-04-05T16:35:22.562Z,34.60
2023-04-05T16:37:52.816Z,34.40
2023-04-05T16:40:21.040Z,34.00
2023-04-05T16:42:49.626Z,34.20
2023-04-05T16:45:17.870Z,34.40
2023-04-05T16:47:46.111Z,34.70
2023-04-05T16:50:14.718Z,34.90
2023-04-05T16:52:43.258Z,34.90
2023-04-05T16:55:12.907Z,34.80
2023-04-05T16:57:41.545Z,34.70
2023-04-05T17:00:11.168Z,34.30
2023-04-05T17:02:39.300Z,34.70
2023-04-05T17:05:08.746Z,35.40
2023-04-05T17:07:36.837Z,35.80
2023-04-05T17:10:05.647Z,36.00
2023-04-05T17:12:37.899Z,36.30
2023-04-05T17:15:06.630Z,36.30
2023-04-05T17:17:34.776Z,36.40
2023-04-05T17:20:04.029Z,36.60
2023-04-05T17:22:32.473Z,36.80
2023-04-05T17:25:03.023Z,36.90
2023-04-05T17:27:31.046Z,37.40
2023-04-05T17:30:01.260Z,37.60
2023-04-05T17:32:29.497Z,37.60
2023-04-05T17:34:57.676Z,37.70
2023-04-05T17:37:25.726Z,37.70
2023-04-05T17:39:53.802Z,37.80
2023-04-05T17:42:22.493Z,38.10
2023-04-05T17:44:51.346Z,38.20
2023-04-05T17:47:20.965Z,38.10
2023-04-05T17:49:49.061Z,38.20
2023-04-05T17:52:17.745Z,38.50
2023-04-05T17:54:47.403Z,38.70
2023-04-05T17:57:16.060Z,38.90
2023-04-05T17:59:44.584Z,38.80
2023-04-05T18:02:13.333Z,38.90
2023-04-05T18:04:43.576Z,39.00
2023-04-05T18:07:11.779Z,39.20
2023-04-05T18:09:42.212Z,39.30
2023-04-05T18:12:10.622Z,39.50
2023-04-05T18:14:39.251Z,39.50
2023-04-05T18:17:07.598Z,39.80
2023-04-05T18:19:35.804Z,40.20
2023-04-05T18:22:05.471Z,40.20
2023-04-05T18:24:34.018Z,40.30
2023-04-05T18:27:02.591Z,40.20
2023-04-05T18:29:32.969Z,40.10
2023-04-05T18:32:01.672Z,40.10
2023-04-05T18:34:29.759Z,40.00
2023-04-05T18:36:58.382Z,40.10
2023-04-05T18:39:28.004Z,40.30
2023-04-05T18:41:56.813Z,40.40
2023-04-05T18:44:24.925Z,40.50
2023-04-05T18:46:54.181Z,40.60
2023-04-05T18:49:23.045Z,40.70
2023-04-05T18:51:51.129Z,40.80
2023-04-05T18:54:19.375Z,41.00
2023-04-05T18:56:49.524Z,41.10
2023-04-05T18:59:18.749Z,41.30
2023-04-05T19:01:47.109Z,41.40
2023-04-05T19:04:16.775Z,41.60
2023-04-05T19:06:45.319Z,41.80
2023-04-05T19:09:13.908Z,41.90
2023-04-05T19:11:41.994Z,42.20
2023-04-05T19:14:11.418Z,42.30
2023-04-05T19:16:40.978Z,42.40
2023-04-05T19:19:09.385Z,42.50
2023-04-05T19:21:38.102Z,42.70
2023-04-05T19:24:09.319Z,42.80
2023-04-05T19:26:38.119Z,43.00
2023-04-05T19:29:06.645Z,43.10
2023-04-05T19:31:37.013Z,43.20
2023-04-05T19:34:08.180Z,43.30
2023-04-05T19:36:36.794Z,43.30
2023-04-05T19:39:05.864Z,43.10
2023-04-05T19:41:34.435Z,43.20
2023-04-05T19:44:02.755Z,43.10
2023-04-05T19:46:31.526Z,43.20
2023-04-05T19:49:09.761Z,44.00
2023-04-05T19:51:38.496Z,43.70
2023-04-05T19:54:11.928Z,43.70
2023-04-05T19:56:42.192Z,44.00
2023-04-05T19:59:29.906Z,44.00
2023-04-05T20:02:00.497Z,44.20
2023-04-05T20:04:34.431Z,43.90
2023-04-05T20:07:05.420Z,43.70
2023-04-05T20:09:35.180Z,43.60
2023-04-05T20:12:05.711Z,43.60
2023-04-05T20:14:42.431Z,43.80
2023-04-05T20:17:12.765Z,44.10
2023-04-05T20:19:55.947Z,44.10
2023-04-05T20:22:24.515Z,44.40
2023-04-05T20:24:53.308Z,44.40
2023-04-05T20:27:21.424Z,44.50
2023-04-05T20:29:50.110Z,44.50
2023-04-05T20:32:18.544Z,44.50
2023-04-05T20:34:48.786Z,44.30
2023-04-05T20:37:16.895Z,44.30
2023-04-05T20:39:45.488Z,44.30
2023-04-05T20:42:14.074Z,44.40
2023-04-05T20:44:42.890Z,44.70
2023-04-05T20:47:11.369Z,44.90
2023-04-05T20:49:39.427Z,45.10
2023-04-05T20:52:11.076Z,45.10
2023-04-05T20:54:39.264Z,45.10
2023-04-05T20:57:07.350Z,44.90
2023-04-05T20:59:35.456Z,44.80
2023-04-05T21:02:03.656Z,44.90
2023-04-05T21:04:31.776Z,45.20
2023-04-05T21:06:59.826Z,45.30
2023-04-05T21:09:29.325Z,45.40
2023-04-05T21:11:57.569Z,45.60
2023-04-05T21:14:26.570Z,45.70
2023-04-05T21:16:55.294Z,45.80
2023-04-05T21:19:23.500Z,46.00
2023-04-05T21:21:51.577Z,46.20
2023-04-05T21:24:19.614Z,46.30
2023-04-05T21:26:49.524Z,46.30
2023-04-05T21:29:17.579Z,46.50
2023-04-05T21:31:46.236Z,46.60
2023-04-05T21:34:14.269Z,46.80
2023-04-05T21:36:42.872Z,47.00
2023-04-05T21:39:11.344Z,47.10
2023-04-05T21:41:40.034Z,47.30
2023-04-05T21:44:09.471Z,47.40
2023-04-05T21:46:38.060Z,47.40
2023-04-05T21:49:06.877Z,47.50
2023-04-05T21:51:35.193Z,47.60
2023-04-05T21:54:03.710Z,47.70
2023-04-05T21:56:31.773Z,47.80
2023-04-05T21:58:59.903Z,47.90
2023-04-05T22:01:29.394Z,47.90
2023-04-05T22:03:57.938Z,48.00
2023-04-05T22:06:26.479Z,48.10
2023-04-05T22:08:54.575Z,48.20
2023-04-05T22:11:24.249Z,48.40
2023-04-05T22:13:52.590Z,48.60
2023-04-05T22:16:21.298Z,48.60
2023-04-05T22:18:50.737Z,48.60
2023-04-05T22:21:19.349Z,48.70
2023-04-05T22:23:47.642Z,48.80
2023-04-05T22:26:16.176Z,48.70
2023-04-05T22:28:44.221Z,48.60
2023-04-05T22:31:12.742Z,48.60
2023-04-05T22:33:41.065Z,48.90
2023-04-05T22:36:11.383Z,49.00
2023-04-05T22:38:39.995Z,49.20
2023-04-05T22:41:08.583Z,49.30
2023-04-05T22:43:37.221Z,49.40
2023-04-05T22:46:06.173Z,49.20
2023-04-05T22:48:34.290Z,49.20
2023-04-05T22:51:02.939Z,49.30
2023-04-05T22:53:32.387Z,49.40
2023-04-05T22:56:00.927Z,49.50
2023-04-05T22:58:29.739Z,49.60
2023-04-05T23:00:58.266Z,49.60
2023-04-05T23:03:27.145Z,49.60
2023-04-05T23:05:55.344Z,49.70
2023-04-05T23:08:23.905Z,49.70
2023-04-05T23:10:53.353Z,49.80
2023-04-05T23:13:22.311Z,50.10
2023-04-05T23:15:50.899Z,50.40
2023-04-05T23:18:23.092Z,50.60
2023-04-05T23:20:51.709Z,50.70
2023-04-05T23:23:20.244Z,50.60
2023-04-05T23:25:51.669Z,50.70
2023-04-05T23:28:21.060Z,50.80
2023-04-05T23:30:50.026Z,50.90
2023-04-05T23:33:18.621Z,51.00
2023-04-05T23:35:46.731Z,51.00
2023-04-05T23:38:15.278Z,51.20
2023-04-05T23:40:43.335Z,51.30
2023-04-05T23:43:13.124Z,51.40
2023-04-05T23:45:42.582Z,51.50
2023-04-05T23:48:11.132Z,51.40
2023-04-05T23:50:39.324Z,51.50
2023-04-05T23:53:08.231Z,51.50
2023-04-05T23:55:40.781Z,51.60
2023-04-05T23:58:09.703Z,51.70
